createdAt,value
2022-12-05T00:01:00.657Z,3.50
2022-12-05T00:02:04.368Z,3.50
2022-12-05T00:03:09.481Z,3.50
2022-12-05T00:04:15.399Z,3.50
2022-12-05T00:05:18.712Z,3.50
2022-12-05T00:06:26.431Z,3.50
2022-12-05T00:07:31.527Z,3.50
2022-12-05T00:08:36.643Z,3.50
2022-12-05T00:09:39.150Z,3.50
2022-12-05T00:10:43.134Z,3.50
2022-12-05T00:11:47.147Z,3.50
2022-12-05T00:12:53.102Z,3.50
2022-12-05T00:13:58.176Z,3.50
2022-12-05T00:15:04.154Z,3.60
2022-12-05T00:16:11.668Z,3.60
2022-12-05T00:17:15.354Z,3.60
2022-12-05T00:18:17.977Z,3.60
2022-12-05T00:19:24.154Z,3.60
2022-12-05T00:20:29.149Z,3.60
2022-12-05T00:21:35.437Z,3.60
2022-12-05T00:22:39.553Z,3.60
2022-12-05T00:23:45.071Z,3.60
2022-12-05T00:24:48.832Z,3.60
2022-12-05T00:25:51.966Z,3.60
2022-12-05T00:26:55.504Z,3.60
2022-12-05T00:27:58.601Z,3.60
2022-12-05T00:29:03.019Z,3.60
2022-12-05T00:30:08.425Z,3.60
2022-12-05T00:31:16.313Z,3.70
2022-12-05T00:32:22.123Z,3.70
2022-12-05T00:33:24.639Z,3.70
2022-12-05T00:34:28.421Z,3.70
2022-12-05T00:35:33.277Z,3.70
2022-12-05T00:36:39.615Z,3.70
2022-12-05T00:37:42.334Z,3.70
2022-12-05T00:38:47.608Z,3.70
2022-12-05T00:39:50.280Z,3.70
2022-12-05T00:40:54.344Z,3.70
2022-12-05T00:41:57.134Z,3.70
2022-12-05T00:43:01.005Z,3.70
2022-12-05T00:44:06.527Z,3.70
2022-12-05T00:45:12.004Z,3.70
2022-12-05T00:46:17.405Z,3.70
2022-12-05T00:47:21.584Z,3.70
2022-12-05T00:48:24.559Z,3.70
2022-12-05T00:49:28.217Z,3.70
2022-12-05T00:50:30.633Z,3.70
2022-12-05T00:51:37.476Z,3.70
2022-12-05T00:52:47.390Z,3.70
2022-12-05T00:53:54.733Z,3.70
2022-12-05T00:54:57.286Z,3.70
2022-12-05T00:56:04.823Z,3.80
2022-12-05T00:57:08.396Z,3.80
2022-12-05T00:58:10.968Z,3.80
2022-12-05T00:59:18.232Z,3.80
2022-12-05T01:00:22.168Z,3.80
2022-12-05T01:01:29.824Z,3.80
2022-12-05T01:02:32.365Z,3.80
2022-12-05T01:03:36.380Z,3.80
2022-12-05T01:04:39.289Z,3.80
2022-12-05T01:05:45.739Z,3.80
2022-12-05T01:06:49.209Z,3.80
2022-12-05T01:07:52.747Z,3.80
2022-12-05T01:08:57.655Z,3.80
2022-12-05T01:10:01.091Z,3.80
2022-12-05T01:11:04.726Z,3.80
2022-12-05T01:12:09.062Z,3.80
2022-12-05T01:13:11.736Z,3.80
2022-12-05T01:14:19.329Z,3.80
2022-12-05T01:15:22.183Z,3.80
2022-12-05T01:16:31.631Z,3.80
2022-12-05T01:17:35.666Z,3.80
2022-12-05T01:18:39.393Z,3.80
2022-12-05T01:19:43.125Z,3.80
2022-12-05T01:20:47.643Z,3.80
2022-12-05T01:21:50.396Z,3.80
2022-12-05T01:22:57.011Z,3.80
2022-12-05T01:24:01.924Z,3.80
2022-12-05T01:25:06.893Z,3.80
2022-12-05T01:26:13.338Z,3.80
2022-12-05T01:27:31.914Z,3.80
2022-12-05T01:29:01.028Z,3.80
2022-12-05T01:30:06.716Z,3.80
2022-12-05T01:31:16.064Z,3.90
2022-12-05T01:32:21.106Z,3.90
2022-12-05T01:33:24.213Z,3.90
2022-12-05T01:34:30.497Z,3.80
2022-12-05T01:35:33.826Z,3.90
2022-12-05T01:36:43.235Z,3.90
2022-12-05T01:37:46.080Z,3.90
2022-12-05T01:38:51.259Z,3.90
2022-12-05T01:39:56.439Z,3.90
2022-12-05T01:41:05.066Z,3.90
2022-12-05T01:42:09.036Z,3.90
2022-12-05T01:43:16.418Z,3.80
2022-12-05T01:45:05.686Z,3.90
2022-12-05T01:46:09.309Z,3.90
2022-12-05T01:47:13.588Z,3.90
2022-12-05T01:48:23.295Z,3.90
2022-12-05T01:49:32.455Z,3.90
2022-12-05T01:50:35.736Z,3.80
2022-12-05T01:51:47.308Z,3.90
2022-12-05T01:52:51.590Z,3.80
2022-12-05T01:53:58.218Z,3.90
2022-12-05T01:55:09.374Z,3.90
2022-12-05T01:56:21.725Z,3.90
2022-12-05T01:57:25.634Z,3.90
2022-12-05T01:58:39.133Z,3.90
2022-12-05T01:59:48.528Z,3.90
2022-12-05T02:00:55.380Z,3.80
2022-12-05T02:01:58.449Z,3.80
2022-12-05T02:03:08.077Z,3.90
2022-12-05T02:04:11.246Z,3.90
2022-12-05T02:05:21.729Z,3.80
2022-12-05T02:06:25.997Z,3.80
2022-12-05T02:07:33.412Z,3.90
2022-12-05T02:08:38.906Z,3.90
2022-12-05T02:09:42.458Z,3.90
2022-12-05T02:10:50.026Z,3.80
2022-12-05T02:11:56.584Z,3.90
2022-12-05T02:13:10.787Z,3.90
2022-12-05T02:14:28.429Z,3.90
2022-12-05T02:15:45.235Z,3.90
2022-12-05T02:16:58.787Z,3.90
2022-12-05T02:18:22.680Z,3.90
2022-12-05T02:20:09.719Z,3.90
2022-12-05T02:21:50.397Z,3.90
2022-12-05T02:23:36.004Z,3.90
2022-12-05T02:24:59.277Z,3.90
2022-12-05T02:26:43.157Z,3.90
2022-12-05T02:28:31.119Z,3.90
2022-12-05T02:30:05.945Z,3.90
2022-12-05T02:31:16.506Z,3.90
2022-12-05T02:32:34.378Z,3.90
2022-12-05T02:33:44.233Z,3.90
2022-12-05T02:35:00.526Z,3.90
2022-12-05T02:36:08.646Z,3.90
2022-12-05T02:37:18.945Z,3.90
2022-12-05T02:38:31.186Z,3.90
2022-12-05T02:39:42.494Z,3.90
2022-12-05T02:40:58.090Z,3.90
2022-12-05T02:42:09.900Z,3.90
2022-12-05T02:43:17.899Z,3.90
2022-12-05T02:44:31.465Z,3.90
2022-12-05T02:45:38.734Z,3.90
2022-12-05T02:46:46.838Z,3.90
2022-12-05T02:47:53.077Z,3.90
2022-12-05T02:49:03.876Z,3.90
2022-12-05T02:50:09.347Z,3.90
2022-12-05T02:51:19.431Z,3.90
2022-12-05T02:52:25.129Z,3.90
2022-12-05T02:53:31.344Z,3.90
2022-12-05T02:54:40.191Z,3.90
2022-12-05T02:55:45.632Z,3.90
2022-12-05T02:56:49.734Z,3.90
2022-12-05T02:58:02.579Z,3.90
2022-12-05T02:59:07.192Z,3.90
2022-12-05T03:00:16.708Z,3.90
2022-12-05T03:01:32.211Z,3.90
2022-12-05T03:02:41.953Z,3.90
2022-12-05T03:03:56.882Z,3.90
2022-12-05T03:05:18.835Z,4.00
2022-12-05T03:06:30.316Z,3.90
2022-12-05T03:07:41.257Z,4.00
2022-12-05T03:09:05.112Z,4.00
2022-12-05T03:10:14.705Z,4.00
2022-12-05T03:11:21.056Z,4.00
2022-12-05T03:12:36.503Z,4.00
2022-12-05T03:13:49.333Z,4.00
2022-12-05T03:15:10.402Z,4.00
2022-12-05T03:16:26.983Z,4.00
2022-12-05T03:18:02.120Z,4.00
2022-12-05T03:19:13.440Z,4.00
2022-12-05T03:20:27.945Z,4.00
2022-12-05T03:21:41.896Z,4.00
2022-12-05T03:22:57.940Z,4.00
2022-12-05T03:24:13.021Z,4.00
2022-12-05T03:25:27.583Z,4.00
2022-12-05T03:26:48.087Z,4.00
2022-12-05T03:28:16.843Z,4.00
2022-12-05T03:29:32.668Z,4.00
2022-12-05T03:30:40.576Z,4.00
2022-12-05T03:31:54.342Z,4.00
2022-12-05T03:33:28.810Z,4.00
2022-12-05T03:34:51.685Z,4.00
2022-12-05T03:36:23.450Z,4.00
2022-12-05T03:37:44.392Z,4.00
2022-12-05T03:38:51.140Z,4.00
2022-12-05T03:40:09.645Z,4.00
2022-12-05T03:41:24.033Z,4.10
2022-12-05T03:42:35.022Z,4.10
2022-12-05T03:43:47.805Z,4.10
2022-12-05T03:44:56.060Z,4.10
2022-12-05T03:46:07.101Z,4.10
2022-12-05T03:47:20.787Z,4.10
2022-12-05T03:48:35.426Z,4.10
2022-12-05T03:49:46.931Z,4.10
2022-12-05T03:50:51.556Z,4.10
2022-12-05T03:52:05.041Z,4.10
2022-12-05T03:53:28.184Z,4.10
2022-12-05T03:54:44.111Z,4.10
2022-12-05T03:55:52.435Z,4.10
2022-12-05T03:57:04.438Z,4.10
2022-12-05T03:58:14.000Z,4.10
2022-12-05T03:59:27.609Z,4.10
2022-12-05T04:00:37.982Z,4.10
2022-12-05T04:01:43.149Z,4.10
2022-12-05T04:02:56.804Z,4.10
2022-12-05T04:04:08.154Z,4.20
2022-12-05T04:05:20.795Z,4.20
2022-12-05T04:06:31.266Z,4.20
2022-12-05T04:07:39.483Z,4.20
2022-12-05T04:08:49.495Z,4.20
2022-12-05T04:10:01.903Z,4.20
2022-12-05T04:11:14.231Z,4.20
2022-12-05T04:12:23.335Z,4.20
2022-12-05T04:13:30.675Z,4.20
2022-12-05T04:14:38.748Z,4.20
2022-12-05T04:16:00.645Z,4.20
2022-12-05T04:17:09.317Z,4.20
2022-12-05T04:18:13.908Z,4.30
2022-12-05T04:19:26.401Z,4.20
2022-12-05T04:20:53.526Z,4.20
2022-12-05T04:21:58.416Z,4.30
2022-12-05T04:23:04.567Z,4.30
2022-12-05T04:24:32.566Z,4.30
2022-12-05T04:25:52.896Z,4.30
2022-12-05T04:27:21.775Z,4.30
2022-12-05T04:28:29.535Z,4.30
2022-12-05T04:29:42.641Z,4.30
2022-12-05T04:31:05.125Z,4.30
2022-12-05T04:32:11.947Z,4.30
2022-12-05T04:33:26.045Z,4.30
2022-12-05T04:34:33.951Z,4.30
2022-12-05T04:35:44.712Z,4.30
2022-12-05T04:36:56.767Z,4.30
2022-12-05T04:38:07.750Z,4.30
2022-12-05T04:39:18.189Z,4.30
2022-12-05T04:40:29.520Z,4.30
2022-12-05T04:41:39.976Z,4.30
2022-12-05T04:42:45.581Z,4.30
2022-12-05T04:43:49.437Z,4.30
2022-12-05T04:44:58.621Z,4.40
2022-12-05T04:46:03.642Z,4.40
2022-12-05T04:47:10.149Z,4.40
2022-12-05T04:48:19.097Z,4.40
2022-12-05T04:49:29.241Z,4.40
2022-12-05T04:50:36.116Z,4.40
2022-12-05T04:51:41.559Z,4.40
2022-12-05T04:52:53.902Z,4.40
2022-12-05T04:54:03.508Z,4.40
2022-12-05T04:55:12.529Z,4.40
2022-12-05T04:56:20.713Z,4.40
2022-12-05T04:57:29.463Z,4.40
2022-12-05T04:58:33.804Z,4.40
2022-12-05T04:59:40.793Z,4.40
2022-12-05T05:00:53.708Z,4.40
2022-12-05T05:02:03.981Z,4.40
2022-12-05T05:03:15.646Z,4.40
2022-12-05T05:04:26.898Z,4.40
2022-12-05T05:05:32.237Z,4.40
2022-12-05T05:06:37.767Z,4.40
2022-12-05T05:07:46.327Z,4.40
2022-12-05T05:08:52.053Z,4.40
2022-12-05T05:09:57.066Z,4.40
2022-12-05T05:11:11.122Z,4.40
2022-12-05T05:12:18.905Z,4.40
2022-12-05T05:13:22.238Z,4.40
2022-12-05T05:14:26.205Z,4.40
2022-12-05T05:15:28.710Z,4.50
2022-12-05T05:16:37.000Z,4.50
2022-12-05T05:17:39.793Z,4.50
2022-12-05T05:18:43.912Z,4.50
2022-12-05T05:19:49.462Z,4.50
2022-12-05T05:20:53.117Z,4.50
2022-12-05T05:21:55.906Z,4.50
2022-12-05T05:23:00.134Z,4.50
2022-12-05T05:24:03.424Z,4.50
2022-12-05T05:25:09.848Z,4.50
2022-12-05T05:26:13.028Z,4.50
2022-12-05T05:27:16.507Z,4.50
2022-12-05T05:28:19.291Z,4.50
2022-12-05T05:29:26.701Z,4.50
2022-12-05T05:30:29.598Z,4.50
2022-12-05T05:31:33.904Z,4.50
2022-12-05T05:32:36.624Z,4.50
2022-12-05T05:33:40.715Z,4.50
2022-12-05T05:34:45.453Z,4.50
2022-12-05T05:35:50.618Z,4.50
2022-12-05T05:37:02.206Z,4.50
2022-12-05T05:38:07.178Z,4.50
2022-12-05T05:39:16.674Z,4.50
2022-12-05T05:40:20.240Z,4.50
2022-12-05T05:41:28.884Z,4.50
2022-12-05T05:42:31.528Z,4.50
2022-12-05T05:43:35.089Z,4.50
2022-12-05T05:44:37.492Z,4.60
2022-12-05T05:45:42.794Z,4.60
2022-12-05T05:46:48.072Z,4.60
2022-12-05T05:47:53.663Z,4.60
2022-12-05T05:48:56.846Z,4.60
2022-12-05T05:50:01.011Z,4.60
2022-12-05T05:51:07.782Z,4.60
2022-12-05T05:52:14.279Z,4.60
2022-12-05T05:53:16.753Z,4.60
2022-12-05T05:54:20.849Z,4.60
2022-12-05T05:55:23.508Z,4.60
2022-12-05T05:56:30.394Z,4.60
2022-12-05T05:57:33.408Z,4.60
2022-12-05T05:58:40.902Z,4.60
2022-12-05T05:59:43.412Z,4.70
2022-12-05T06:00:49.681Z,4.60
2022-12-05T06:01:54.687Z,4.70
2022-12-05T06:02:58.876Z,4.70
2022-12-05T06:04:04.687Z,4.70
2022-12-05T06:05:13.895Z,4.70
2022-12-05T06:06:18.638Z,4.70
2022-12-05T06:07:22.429Z,4.70
2022-12-05T06:08:24.889Z,4.70
2022-12-05T06:09:30.117Z,4.70
2022-12-05T06:10:33.179Z,4.70
2022-12-05T06:11:37.315Z,4.70
2022-12-05T06:12:43.448Z,4.70
2022-12-05T06:13:47.898Z,4.70
2022-12-05T06:14:51.267Z,4.70
2022-12-05T06:15:58.021Z,4.70
2022-12-05T06:17:00.868Z,4.70
2022-12-05T06:18:04.506Z,4.70
2022-12-05T06:19:06.969Z,4.80
2022-12-05T06:20:14.980Z,4.70
2022-12-05T06:21:18.969Z,4.80
2022-12-05T06:22:23.086Z,4.80
2022-12-05T06:23:28.945Z,4.80
2022-12-05T06:24:32.609Z,4.80
2022-12-05T06:25:36.979Z,4.80
2022-12-05T06:26:43.619Z,4.80
2022-12-05T06:27:47.273Z,4.80
2022-12-05T06:28:51.258Z,4.80
2022-12-05T06:29:54.460Z,4.80
2022-12-05T06:30:59.103Z,4.80
2022-12-05T06:32:03.617Z,4.80
2022-12-05T06:33:09.064Z,4.80
2022-12-05T06:34:15.210Z,4.90
2022-12-05T06:35:20.138Z,4.90
2022-12-05T06:36:24.769Z,4.90
2022-12-05T06:37:28.958Z,4.90
2022-12-05T06:38:32.289Z,4.90
2022-12-05T06:39:37.077Z,4.90
2022-12-05T06:40:41.848Z,4.90
2022-12-05T06:41:46.704Z,4.90
2022-12-05T06:42:54.122Z,4.90
2022-12-05T06:44:02.279Z,4.90
2022-12-05T06:45:08.188Z,4.90
2022-12-05T06:46:15.385Z,4.90
2022-12-05T06:47:19.357Z,4.90
2022-12-05T06:48:22.895Z,4.90
2022-12-05T06:49:37.486Z,4.90
2022-12-05T06:50:40.704Z,4.90
2022-12-05T06:51:45.790Z,4.90
2022-12-05T06:52:48.738Z,4.90
2022-12-05T06:53:53.813Z,4.90
2022-12-05T06:54:56.478Z,4.90
2022-12-05T06:56:02.603Z,4.90
2022-12-05T06:57:05.345Z,5.00
2022-12-05T06:58:11.696Z,5.00
2022-12-05T06:59:20.918Z,5.00
2022-12-05T07:00:42.655Z,5.00
2022-12-05T07:01:49.308Z,5.00
2022-12-05T07:02:54.455Z,5.00
2022-12-05T07:04:01.016Z,5.00
2022-12-05T07:05:04.985Z,5.00
2022-12-05T07:06:10.675Z,5.00
2022-12-05T07:07:15.671Z,5.00
2022-12-05T07:08:18.515Z,5.00
2022-12-05T07:09:45.894Z,5.00
2022-12-05T07:10:52.768Z,5.00
2022-12-05T07:11:56.808Z,5.00
2022-12-05T07:12:59.404Z,5.00
2022-12-05T07:14:14.659Z,5.00
2022-12-05T07:15:26.147Z,5.00
2022-12-05T07:16:30.444Z,5.10
2022-12-05T07:17:37.608Z,5.10
2022-12-05T07:18:42.116Z,5.10
2022-12-05T07:19:44.768Z,5.10
2022-12-05T07:21:14.483Z,5.10
2022-12-05T07:22:21.047Z,5.10
2022-12-05T07:23:23.602Z,5.10
2022-12-05T07:24:27.115Z,5.10
2022-12-05T07:25:29.971Z,5.10
2022-12-05T07:26:33.920Z,5.10
2022-12-05T07:27:36.653Z,5.10
2022-12-05T07:28:41.164Z,5.10
2022-12-05T07:29:47.669Z,5.10
2022-12-05T07:30:58.882Z,5.10
2022-12-05T07:32:02.416Z,5.10
2022-12-05T07:33:05.054Z,5.10
2022-12-05T07:34:09.111Z,5.10
2022-12-05T07:35:11.829Z,5.20
2022-12-05T07:36:18.415Z,5.20
2022-12-05T07:37:23.800Z,5.20
2022-12-05T07:38:27.679Z,5.20
2022-12-05T07:39:32.657Z,5.20
2022-12-05T07:40:38.619Z,5.20
2022-12-05T07:41:42.180Z,5.20
2022-12-05T07:42:48.834Z,5.20
2022-12-05T07:43:53.557Z,5.20
2022-12-05T07:44:56.342Z,5.20
2022-12-05T07:46:04.508Z,5.20
2022-12-05T07:47:08.041Z,5.20
2022-12-05T07:48:15.729Z,5.20
2022-12-05T07:49:24.954Z,5.20
2022-12-05T07:50:29.009Z,5.20
2022-12-05T07:51:33.768Z,5.20
2022-12-05T07:52:38.094Z,5.20
2022-12-05T07:53:44.363Z,5.20
2022-12-05T07:54:47.306Z,5.30
2022-12-05T07:55:54.573Z,5.30
2022-12-05T07:56:58.492Z,5.30
2022-12-05T07:58:02.179Z,5.30
2022-12-05T07:59:05.885Z,5.30
2022-12-05T08:00:10.963Z,5.30
2022-12-05T08:01:20.970Z,5.30
2022-12-05T08:02:25.889Z,5.30
2022-12-05T08:03:29.980Z,5.30
2022-12-05T08:04:33.065Z,5.30
2022-12-05T08:05:37.892Z,5.30
2022-12-05T08:06:47.194Z,5.30
2022-12-05T08:07:51.629Z,5.30
2022-12-05T08:08:56.522Z,5.30
2022-12-05T08:10:00.964Z,5.30
2022-12-05T08:11:06.164Z,5.40
2022-12-05T08:12:14.786Z,5.30
2022-12-05T08:13:18.149Z,5.40
2022-12-05T08:14:22.904Z,5.40
2022-12-05T08:15:28.406Z,5.40
2022-12-05T08:16:35.019Z,5.40
2022-12-05T08:17:38.279Z,5.40
2022-12-05T08:18:43.007Z,5.40
2022-12-05T08:19:49.540Z,5.40
2022-12-05T08:20:52.931Z,5.40
2022-12-05T08:21:57.662Z,5.40
2022-12-05T08:23:02.111Z,5.40
2022-12-05T08:24:09.958Z,5.40
2022-12-05T08:25:16.808Z,5.40
2022-12-05T08:26:24.798Z,5.40
2022-12-05T08:27:30.560Z,5.40
2022-12-05T08:28:34.131Z,5.40
2022-12-05T08:29:39.142Z,5.40
2022-12-05T08:30:44.437Z,5.40
2022-12-05T08:31:51.967Z,5.50
2022-12-05T08:32:55.063Z,5.50
2022-12-05T08:34:01.744Z,5.50
2022-12-05T08:35:07.270Z,5.50
2022-12-05T08:36:15.715Z,5.50
2022-12-05T08:37:20.212Z,5.50
2022-12-05T08:38:25.417Z,5.50
2022-12-05T08:39:32.636Z,5.50
2022-12-05T08:40:40.258Z,5.50
2022-12-05T08:41:48.626Z,5.50
2022-12-05T08:42:52.523Z,5.50
2022-12-05T08:43:57.464Z,5.50
2022-12-05T08:45:01.798Z,5.50
2022-12-05T08:46:07.063Z,5.50
2022-12-05T08:47:14.384Z,5.50
2022-12-05T08:48:21.523Z,5.60
2022-12-05T08:49:30.806Z,5.60
2022-12-05T08:50:35.365Z,5.60
2022-12-05T08:51:38.787Z,5.60
2022-12-05T08:52:42.708Z,5.60
2022-12-05T08:53:47.302Z,5.60
2022-12-05T08:54:51.399Z,5.60
2022-12-05T08:55:56.019Z,5.60
2022-12-05T08:57:01.075Z,5.60
2022-12-05T08:58:04.652Z,5.60
2022-12-05T08:59:09.501Z,5.60
2022-12-05T09:00:17.367Z,5.60
2022-12-05T09:01:30.770Z,5.60
2022-12-05T09:02:37.741Z,5.60
2022-12-05T09:03:47.313Z,5.60
2022-12-05T09:04:54.440Z,5.60
2022-12-05T09:06:08.897Z,5.70
2022-12-05T09:07:13.771Z,5.60
2022-12-05T09:08:20.587Z,5.70
2022-12-05T09:09:26.323Z,5.70
2022-12-05T09:10:30.541Z,5.70
2022-12-05T09:11:37.947Z,5.70
2022-12-05T09:12:42.315Z,5.70
2022-12-05T09:13:53.690Z,5.70
2022-12-05T09:15:00.616Z,5.70
2022-12-05T09:16:07.701Z,5.70
2022-12-05T09:17:14.775Z,5.70
2022-12-05T09:18:18.107Z,5.70
2022-12-05T09:19:24.470Z,5.70
2022-12-05T09:20:28.594Z,5.70
2022-12-05T09:21:34.746Z,5.80
2022-12-05T09:22:39.353Z,5.80
2022-12-05T09:23:42.616Z,5.80
2022-12-05T09:24:48.262Z,5.80
2022-12-05T09:25:56.343Z,5.80
2022-12-05T09:27:01.825Z,5.80
2022-12-05T09:28:06.162Z,5.80
2022-12-05T09:29:17.050Z,5.80
2022-12-05T09:30:24.601Z,5.80
2022-12-05T09:31:28.288Z,5.90
2022-12-05T09:32:32.929Z,5.90
2022-12-05T09:33:40.429Z,5.90
2022-12-05T09:34:44.700Z,5.90
2022-12-05T09:35:49.827Z,5.90
2022-12-05T09:37:10.316Z,5.90
2022-12-05T09:38:19.798Z,5.90
2022-12-05T09:39:24.194Z,5.90
2022-12-05T09:40:41.407Z,5.90
2022-12-05T09:42:29.826Z,5.90
2022-12-05T09:43:41.001Z,5.90
2022-12-05T09:44:59.548Z,5.90
2022-12-05T09:46:09.152Z,5.90
2022-12-05T09:47:28.454Z,5.90
2022-12-05T09:48:34.096Z,5.90
2022-12-05T09:49:45.543Z,5.90
2022-12-05T09:50:55.795Z,5.90
2022-12-05T09:52:05.321Z,6.00
2022-12-05T09:53:22.136Z,6.00
2022-12-05T09:54:26.830Z,6.00
2022-12-05T09:55:43.451Z,5.90
2022-12-05T09:56:50.353Z,5.90
2022-12-05T09:58:02.225Z,6.00
2022-12-05T09:59:18.526Z,6.00
2022-12-05T10:00:23.951Z,6.00
2022-12-05T10:01:41.849Z,6.00
2022-12-05T10:03:03.939Z,6.00
2022-12-05T10:04:56.995Z,6.00
2022-12-05T10:06:23.422Z,6.00
2022-12-05T10:07:35.183Z,6.00
2022-12-05T10:08:56.479Z,6.00
2022-12-05T10:10:29.230Z,6.00
2022-12-05T10:11:45.108Z,6.00
2022-12-05T10:13:08.171Z,6.00
2022-12-05T10:14:27.839Z,6.00
2022-12-05T10:15:37.389Z,6.10
2022-12-05T10:16:50.826Z,6.00
2022-12-05T10:18:00.851Z,6.00
2022-12-05T10:19:12.558Z,6.10
2022-12-05T10:20:23.038Z,6.10
2022-12-05T10:21:34.151Z,6.10
2022-12-05T10:22:47.635Z,6.10
2022-12-05T10:23:58.761Z,6.00
2022-12-05T10:25:08.869Z,6.10
2022-12-05T10:26:17.084Z,6.00
2022-12-05T10:27:29.305Z,6.00
2022-12-05T10:28:41.452Z,6.00
2022-12-05T10:29:55.201Z,6.00
2022-12-05T10:31:04.514Z,6.00
2022-12-05T10:32:20.183Z,6.00
2022-12-05T10:33:25.004Z,6.00
2022-12-05T10:34:34.745Z,6.00
2022-12-05T10:35:41.990Z,6.00
2022-12-05T10:36:57.040Z,6.00
2022-12-05T10:38:23.147Z,6.00
2022-12-05T10:39:29.436Z,6.00
2022-12-05T10:40:38.075Z,6.00
2022-12-05T10:41:47.218Z,6.00
2022-12-05T10:42:53.726Z,6.00
2022-12-05T10:44:00.201Z,6.00
2022-12-05T10:45:11.478Z,6.00
2022-12-05T10:46:17.708Z,6.00
2022-12-05T10:47:22.490Z,6.00
2022-12-05T10:48:29.459Z,6.00
2022-12-05T10:49:34.406Z,6.00
2022-12-05T10:50:38.997Z,6.00
2022-12-05T10:51:43.109Z,6.00
2022-12-05T10:52:48.716Z,6.00
2022-12-05T10:53:53.508Z,6.00
2022-12-05T10:55:02.921Z,6.00
2022-12-05T10:56:41.291Z,6.00
2022-12-05T10:57:51.059Z,6.00
2022-12-05T10:58:59.691Z,6.00
2022-12-05T11:00:17.474Z,6.00
2022-12-05T11:01:21.462Z,6.10
2022-12-05T11:02:29.913Z,6.10
2022-12-05T11:03:38.622Z,6.10
2022-12-05T11:04:47.126Z,6.10
2022-12-05T11:05:53.026Z,6.10
2022-12-05T11:07:01.561Z,6.10
2022-12-05T11:08:04.947Z,6.10
2022-12-05T11:09:22.973Z,6.10
2022-12-05T11:10:33.302Z,6.10
2022-12-05T11:11:36.397Z,6.10
2022-12-05T11:12:41.977Z,6.10
2022-12-05T11:13:59.551Z,6.20
2022-12-05T11:15:17.033Z,6.20
2022-12-05T11:16:28.000Z,6.20
2022-12-05T11:17:37.940Z,6.20
2022-12-05T11:18:45.013Z,6.20
2022-12-05T11:19:49.849Z,6.20
2022-12-05T11:20:55.071Z,6.20
2022-12-05T11:21:59.400Z,6.30
2022-12-05T11:23:29.540Z,6.30
2022-12-05T11:24:40.677Z,6.30
2022-12-05T11:25:46.161Z,6.30
2022-12-05T11:26:51.015Z,6.30
2022-12-05T11:28:00.782Z,6.30
2022-12-05T11:29:36.733Z,6.30
2022-12-05T11:30:56.876Z,6.30
2022-12-05T11:32:02.328Z,6.40
2022-12-05T11:33:24.024Z,6.40
2022-12-05T11:34:36.250Z,6.40
2022-12-05T11:35:42.220Z,6.40
2022-12-05T11:36:58.106Z,6.40
2022-12-05T11:38:07.485Z,6.40
2022-12-05T11:39:16.381Z,6.40
2022-12-05T11:40:33.982Z,6.40
2022-12-05T11:42:02.012Z,6.40
2022-12-05T11:43:51.753Z,6.40
2022-12-05T11:45:41.924Z,6.40
2022-12-05T11:47:10.574Z,6.40
2022-12-05T11:48:50.770Z,6.40
2022-12-05T11:50:17.032Z,6.40
2022-12-05T11:51:40.914Z,6.40
2022-12-05T11:53:04.157Z,6.40
2022-12-05T11:55:06.047Z,6.40
2022-12-05T11:56:24.894Z,6.50
2022-12-05T11:58:21.020Z,6.40
2022-12-05T11:59:49.928Z,6.50
2022-12-05T12:01:13.459Z,6.50
2022-12-05T12:02:35.708Z,6.50
2022-12-05T12:04:10.979Z,6.50
2022-12-05T12:05:22.218Z,6.50
2022-12-05T12:06:33.110Z,6.50
2022-12-05T12:08:02.053Z,6.50
2022-12-05T12:09:29.912Z,6.50
2022-12-05T12:10:46.185Z,6.50
2022-12-05T12:12:01.356Z,6.50
2022-12-05T12:13:34.032Z,6.50
2022-12-05T12:14:47.794Z,6.50
2022-12-05T12:16:13.194Z,6.50
2022-12-05T12:17:31.129Z,6.50
2022-12-05T12:19:15.554Z,6.50
2022-12-05T12:20:39.946Z,6.50
2022-12-05T12:22:16.469Z,6.50
2022-12-05T12:23:38.847Z,6.50
2022-12-05T12:25:10.049Z,6.50
2022-12-05T12:26:27.059Z,6.60
2022-12-05T12:27:49.177Z,6.60
2022-12-05T12:29:09.099Z,6.60
2022-12-05T12:30:23.024Z,6.60
2022-12-05T12:32:03.269Z,6.60
2022-12-05T12:33:16.869Z,6.60
2022-12-05T12:35:05.341Z,6.60
2022-12-05T12:36:23.841Z,6.60
2022-12-05T12:37:41.478Z,6.60
2022-12-05T12:39:18.329Z,6.60
2022-12-05T12:40:31.608Z,6.60
2022-12-05T12:41:58.798Z,6.60
2022-12-05T12:43:30.903Z,6.70
2022-12-05T12:45:08.189Z,6.60
2022-12-05T12:46:37.016Z,6.70
2022-12-05T12:47:53.449Z,6.70
2022-12-05T12:49:31.653Z,6.60
2022-12-05T12:50:44.374Z,6.60
2022-12-05T12:52:00.657Z,6.60
2022-12-05T12:53:52.646Z,6.60
2022-12-05T12:55:16.470Z,6.70
2022-12-05T12:56:38.533Z,6.70
2022-12-05T12:58:07.772Z,6.70
2022-12-05T12:59:43.902Z,6.70
2022-12-05T13:01:03.925Z,6.70
2022-12-05T13:02:20.532Z,6.70
2022-12-05T13:03:36.706Z,6.70
2022-12-05T13:04:59.993Z,6.70
2022-12-05T13:06:14.041Z,6.70
2022-12-05T13:07:27.398Z,6.70
2022-12-05T13:08:39.435Z,6.70
2022-12-05T13:09:51.860Z,6.70
2022-12-05T13:10:57.391Z,6.60
2022-12-05T13:12:09.682Z,6.70
2022-12-05T13:13:21.563Z,6.60
2022-12-05T13:14:27.487Z,6.70
2022-12-05T13:15:41.043Z,6.70
2022-12-05T13:16:51.732Z,6.70
2022-12-05T13:17:56.910Z,6.70
2022-12-05T13:19:00.716Z,6.70
2022-12-05T13:20:08.174Z,6.70
2022-12-05T13:21:15.287Z,6.70
2022-12-05T13:22:21.896Z,6.60
2022-12-05T13:23:29.491Z,6.60
2022-12-05T13:24:33.528Z,6.60
2022-12-05T13:25:40.644Z,6.60
2022-12-05T13:26:50.410Z,6.60
2022-12-05T13:27:59.227Z,6.60
2022-12-05T13:29:06.137Z,6.60
2022-12-05T13:30:20.217Z,6.60
2022-12-05T13:31:38.757Z,6.60
2022-12-05T13:32:42.962Z,6.60
2022-12-05T13:33:51.677Z,6.60
2022-12-05T13:34:59.185Z,6.60
2022-12-05T13:36:30.302Z,6.60
2022-12-05T13:37:52.769Z,6.60
2022-12-05T13:39:22.965Z,6.60
2022-12-05T13:40:49.057Z,6.60
2022-12-05T13:42:15.085Z,6.60
2022-12-05T13:43:23.736Z,6.60
2022-12-05T13:44:42.259Z,6.60
2022-12-05T13:46:07.260Z,6.50
2022-12-05T13:47:32.421Z,6.50
2022-12-05T13:48:39.197Z,6.50
2022-12-05T13:49:50.889Z,6.50
2022-12-05T13:51:02.496Z,6.50
2022-12-05T13:52:14.654Z,6.50
2022-12-05T13:53:27.384Z,6.50
2022-12-05T13:54:31.524Z,6.50
2022-12-05T13:55:37.591Z,6.50
2022-12-05T13:56:54.505Z,6.50
2022-12-05T13:58:00.245Z,6.50
2022-12-05T13:59:03.955Z,6.50
2022-12-05T14:00:27.640Z,6.50
2022-12-05T14:01:56.101Z,6.50
2022-12-05T14:03:47.250Z,6.50
2022-12-05T14:05:02.838Z,6.50
2022-12-05T14:06:12.195Z,6.50
2022-12-05T14:07:44.801Z,6.50
2022-12-05T14:08:57.046Z,6.50
2022-12-05T14:10:03.706Z,6.50
2022-12-05T14:11:12.894Z,6.50
2022-12-05T14:12:31.715Z,6.50
2022-12-05T14:13:47.064Z,6.50
2022-12-05T14:15:02.318Z,6.50
2022-12-05T14:16:47.344Z,6.50
2022-12-05T14:17:51.957Z,6.50
2022-12-05T14:19:04.588Z,6.50
2022-12-05T14:20:28.386Z,6.50
2022-12-05T14:21:45.432Z,6.50
2022-12-05T14:23:26.839Z,6.50
2022-12-05T14:24:44.434Z,6.50
2022-12-05T14:26:09.092Z,6.50
2022-12-05T14:27:30.402Z,6.50
2022-12-05T14:29:03.655Z,6.40
2022-12-05T14:30:27.370Z,6.40
2022-12-05T14:31:59.649Z,6.40
2022-12-05T14:33:22.423Z,6.40
2022-12-05T14:34:29.681Z,6.40
2022-12-05T14:35:47.936Z,6.40
2022-12-05T14:37:01.880Z,6.40
2022-12-05T14:38:19.988Z,6.40
2022-12-05T14:39:31.757Z,6.40
2022-12-05T14:40:38.652Z,6.40
2022-12-05T14:41:41.765Z,6.40
2022-12-05T14:42:59.409Z,6.30
2022-12-05T14:44:19.788Z,6.30
2022-12-05T14:45:36.011Z,6.30
2022-12-05T14:46:47.610Z,6.30
2022-12-05T14:47:55.354Z,6.30
2022-12-05T14:48:59.710Z,6.30
2022-12-05T14:50:37.594Z,6.30
2022-12-05T14:51:46.626Z,6.30
2022-12-05T14:53:33.284Z,6.30
2022-12-05T14:54:38.591Z,6.30
2022-12-05T14:55:42.627Z,6.20
2022-12-05T14:56:54.560Z,6.20
2022-12-05T14:57:59.526Z,6.20
2022-12-05T14:59:11.463Z,6.20
2022-12-05T15:00:22.951Z,6.20
2022-12-05T15:01:31.234Z,6.20
2022-12-05T15:02:46.270Z,6.20
2022-12-05T15:04:11.501Z,6.20
2022-12-05T15:05:25.489Z,6.20
2022-12-05T15:06:30.461Z,6.20
2022-12-05T15:07:42.408Z,6.20
2022-12-05T15:08:55.176Z,6.20
2022-12-05T15:10:01.649Z,6.20
2022-12-05T15:11:28.192Z,6.20
2022-12-05T15:12:40.084Z,6.20
2022-12-05T15:13:44.082Z,6.10
2022-12-05T15:15:08.148Z,6.20
2022-12-05T15:16:19.509Z,6.10
2022-12-05T15:17:30.726Z,6.10
2022-12-05T15:18:41.289Z,6.10
2022-12-05T15:19:57.584Z,6.10
2022-12-05T15:21:08.895Z,6.10
2022-12-05T15:22:18.416Z,6.10
2022-12-05T15:23:44.126Z,6.10
2022-12-05T15:24:49.124Z,6.10
2022-12-05T15:25:57.408Z,6.10
2022-12-05T15:27:06.647Z,6.10
2022-12-05T15:28:23.142Z,6.10
2022-12-05T15:29:33.014Z,6.10
2022-12-05T15:30:40.734Z,6.10
2022-12-05T15:31:49.567Z,6.10
2022-12-05T15:32:59.205Z,6.10
2022-12-05T15:34:13.989Z,6.10
2022-12-05T15:35:24.933Z,6.10
2022-12-05T15:36:38.047Z,6.10
2022-12-05T15:37:50.928Z,6.10
2022-12-05T15:38:56.853Z,6.10
2022-12-05T15:40:03.903Z,6.10
2022-12-05T15:41:17.341Z,6.10
2022-12-05T15:42:29.933Z,6.10
2022-12-05T15:43:37.515Z,6.10
2022-12-05T15:44:41.876Z,6.10
2022-12-05T15:45:46.020Z,6.10